createdAt,value
2023-03-19T00:00:50.584Z,9.30
2023-03-19T00:03:17.492Z,9.30
2023-03-19T00:05:53.150Z,9.20
2023-03-19T00:08:20.505Z,9.20
2023-03-19T00:10:47.371Z,9.10
2023-03-19T00:13:14.285Z,9.00
2023-03-19T00:15:41.693Z,9.00
2023-03-19T00:18:08.591Z,9.00
2023-03-19T00:20:35.534Z,9.00
2023-03-19T00:23:02.772Z,8.90
2023-03-19T00:25:29.690Z,8.80
2023-03-19T00:27:56.710Z,8.80
2023-03-19T00:30:24.168Z,8.80
2023-03-19T00:32:51.633Z,8.80
2023-03-19T00:35:18.619Z,8.80
2023-03-19T00:37:45.482Z,8.80
2023-03-19T00:40:12.888Z,8.70
2023-03-19T00:42:39.878Z,8.70
2023-03-19T00:45:07.730Z,8.70
2023-03-19T00:47:34.695Z,8.60
2023-03-19T00:50:01.593Z,8.50
2023-03-19T00:52:28.508Z,8.40
2023-03-19T00:54:55.653Z,8.20
2023-03-19T00:57:22.651Z,8.20
2023-03-19T00:59:49.588Z,8.20
2023-03-19T01:02:17.654Z,8.10
2023-03-19T01:04:48.305Z,8.10
2023-03-19T01:07:15.628Z,8.10
2023-03-19T01:09:42.773Z,8.10
2023-03-19T01:12:09.815Z,8.10
2023-03-19T01:14:36.775Z,8.10
2023-03-19T01:17:03.811Z,8.00
2023-03-19T01:19:31.010Z,8.10
2023-03-19T01:21:58.121Z,8.10
2023-03-19T01:24:25.128Z,8.10
2023-03-19T01:26:52.026Z,8.00
2023-03-19T01:29:18.872Z,8.00
2023-03-19T01:31:45.782Z,8.00
2023-03-19T01:34:12.702Z,7.90
2023-03-19T01:36:39.604Z,7.90
2023-03-19T01:39:06.777Z,7.80
2023-03-19T01:41:33.710Z,7.80
2023-03-19T01:44:00.579Z,7.80
2023-03-19T01:46:38.514Z,7.80
2023-03-19T01:49:11.954Z,7.80
2023-03-19T01:51:44.557Z,7.80
2023-03-19T01:54:19.565Z,7.70
2023-03-19T01:56:53.418Z,7.70
2023-03-19T01:59:33.155Z,7.70
2023-03-19T02:02:09.689Z,7.60
2023-03-19T02:04:40.942Z,7.60
2023-03-19T02:07:09.692Z,7.40
2023-03-19T02:09:37.396Z,7.30
2023-03-19T02:12:05.339Z,7.30
2023-03-19T02:14:32.443Z,7.40
2023-03-19T02:16:59.689Z,7.30
2023-03-19T02:19:43.667Z,7.30
2023-03-19T02:22:13.799Z,7.40
2023-03-19T02:25:03.102Z,7.40
2023-03-19T02:27:29.942Z,7.40
2023-03-19T02:29:56.798Z,7.40
2023-03-19T02:32:23.742Z,7.30
2023-03-19T02:34:50.851Z,7.20
2023-03-19T02:37:32.872Z,7.00
2023-03-19T02:40:09.527Z,7.00
2023-03-19T02:42:36.497Z,6.90
2023-03-19T02:45:04.093Z,6.90
2023-03-19T02:47:30.961Z,6.90
2023-03-19T02:49:57.823Z,7.00
2023-03-19T02:52:24.732Z,7.00
2023-03-19T02:54:51.616Z,7.00
2023-03-19T02:57:18.566Z,7.00
2023-03-19T02:59:45.437Z,7.10
2023-03-19T03:02:12.633Z,7.10
2023-03-19T03:04:39.568Z,7.10
2023-03-19T03:07:07.453Z,7.20
2023-03-19T03:09:34.970Z,7.20
2023-03-19T03:12:02.228Z,7.20
2023-03-19T03:14:29.633Z,7.20
2023-03-19T03:16:57.431Z,7.10
2023-03-19T03:19:24.728Z,7.10
2023-03-19T03:21:51.966Z,7.10
2023-03-19T03:24:18.967Z,7.20
2023-03-19T03:26:46.225Z,7.10
2023-03-19T03:29:13.216Z,7.10
2023-03-19T03:31:40.224Z,7.10
2023-03-19T03:34:07.501Z,7.00
2023-03-19T03:36:34.410Z,7.10
2023-03-19T03:39:01.716Z,7.10
2023-03-19T03:41:28.551Z,7.10
2023-03-19T03:43:55.592Z,7.10
2023-03-19T03:46:23.270Z,7.10
2023-03-19T03:48:51.371Z,7.10
2023-03-19T03:51:22.190Z,7.10
2023-03-19T03:53:49.161Z,7.10
2023-03-19T03:56:16.230Z,7.00
2023-03-19T03:58:43.086Z,7.00
2023-03-19T04:01:19.085Z,7.00
2023-03-19T04:03:46.504Z,6.90
2023-03-19T04:06:18.611Z,6.90
2023-03-19T04:08:45.996Z,7.00
2023-03-19T04:11:13.092Z,7.00
2023-03-19T04:13:40.029Z,7.00
2023-03-19T04:16:09.633Z,7.00
2023-03-19T04:18:38.355Z,7.00
2023-03-19T04:21:06.881Z,6.90
2023-03-19T04:23:36.955Z,6.80
2023-03-19T04:26:07.529Z,6.80
2023-03-19T04:28:34.965Z,6.70
2023-03-19T04:31:05.386Z,6.60
2023-03-19T04:33:33.239Z,6.60
2023-03-19T04:36:00.524Z,6.60
2023-03-19T04:38:27.911Z,6.60
2023-03-19T04:40:58.436Z,6.60
2023-03-19T04:43:25.777Z,6.70
2023-03-19T04:45:53.059Z,6.70
2023-03-19T04:48:19.975Z,6.70
2023-03-19T04:50:48.311Z,6.50
2023-03-19T04:53:15.153Z,6.50
2023-03-19T04:55:42.436Z,6.60
2023-03-19T04:58:09.316Z,6.60
2023-03-19T05:00:36.863Z,6.60
2023-03-19T05:03:04.096Z,6.70
2023-03-19T05:05:31.294Z,6.70
2023-03-19T05:07:58.390Z,6.70
2023-03-19T05:10:25.367Z,6.70
2023-03-19T05:12:52.219Z,6.60
2023-03-19T05:15:19.099Z,6.50
2023-03-19T05:17:45.994Z,6.60
2023-03-19T05:20:14.340Z,6.60
2023-03-19T05:22:41.507Z,6.50
2023-03-19T05:25:08.698Z,6.50
2023-03-19T05:27:36.410Z,6.40
2023-03-19T05:30:05.707Z,6.40
2023-03-19T05:32:33.256Z,6.40
2023-03-19T05:35:00.174Z,6.30
2023-03-19T05:37:27.109Z,6.40
2023-03-19T05:39:53.914Z,6.40
2023-03-19T05:42:21.121Z,6.40
2023-03-19T05:44:48.266Z,6.40
2023-03-19T05:47:15.179Z,6.50
2023-03-19T05:49:42.122Z,6.60
2023-03-19T05:52:09.202Z,6.70
2023-03-19T05:54:36.144Z,6.80
2023-03-19T05:57:03.551Z,6.80
2023-03-19T05:59:31.954Z,6.90
2023-03-19T06:01:58.797Z,6.90
2023-03-19T06:04:26.008Z,7.00
2023-03-19T06:06:52.964Z,7.10
2023-03-19T06:09:20.535Z,7.20
2023-03-19T06:11:47.379Z,7.30
2023-03-19T06:14:14.665Z,7.40
2023-03-19T06:16:41.612Z,7.40
2023-03-19T06:19:08.928Z,7.40
2023-03-19T06:21:36.026Z,7.20
2023-03-19T06:24:03.202Z,7.20
2023-03-19T06:26:30.537Z,7.10
2023-03-19T06:28:57.454Z,7.10
2023-03-19T06:31:24.524Z,7.20
2023-03-19T06:33:51.437Z,7.30
2023-03-19T06:36:18.407Z,7.50
2023-03-19T06:38:45.560Z,7.60
2023-03-19T06:41:12.782Z,7.70
2023-03-19T06:43:41.964Z,8.00
2023-03-19T06:46:11.463Z,8.10
2023-03-19T06:48:39.271Z,8.20
2023-03-19T06:51:06.863Z,8.10
2023-03-19T06:53:33.910Z,8.20
2023-03-19T06:56:01.064Z,8.30
2023-03-19T06:58:27.964Z,8.30
2023-03-19T07:00:54.923Z,8.40
2023-03-19T07:03:21.870Z,8.50
2023-03-19T07:05:51.624Z,8.60
2023-03-19T07:08:19.002Z,8.70
2023-03-19T07:10:45.886Z,8.80
2023-03-19T07:13:13.291Z,8.90
2023-03-19T07:15:40.385Z,9.10
2023-03-19T07:18:07.294Z,9.40
2023-03-19T07:20:34.202Z,9.60
2023-03-19T07:23:01.302Z,9.70
2023-03-19T07:25:28.098Z,10.00
2023-03-19T07:27:56.170Z,10.40
2023-03-19T07:30:24.283Z,10.60
2023-03-19T07:32:51.522Z,10.60
2023-03-19T07:35:18.416Z,10.80
2023-03-19T07:37:45.410Z,11.10
2023-03-19T07:40:12.629Z,11.30
2023-03-19T07:42:41.609Z,11.50
2023-03-19T07:45:09.745Z,11.60
2023-03-19T07:47:36.628Z,11.80
2023-03-19T07:50:03.894Z,12.10
2023-03-19T07:52:30.934Z,12.40
2023-03-19T07:54:57.814Z,12.60
2023-03-19T07:57:25.744Z,12.80
2023-03-19T07:59:52.763Z,13.10
2023-03-19T08:02:22.689Z,13.30
2023-03-19T08:04:50.055Z,13.50
2023-03-19T08:07:17.131Z,13.60
2023-03-19T08:09:44.208Z,13.80
2023-03-19T08:12:11.490Z,14.00
2023-03-19T08:14:38.409Z,14.10
2023-03-19T08:17:05.724Z,14.10
2023-03-19T08:19:33.291Z,14.20
2023-03-19T08:22:00.318Z,14.40
2023-03-19T08:24:27.133Z,14.60
2023-03-19T08:26:53.932Z,14.70
2023-03-19T08:29:20.978Z,14.80
2023-03-19T08:31:47.885Z,14.80
2023-03-19T08:34:15.374Z,14.90
2023-03-19T08:36:42.371Z,14.90
2023-03-19T08:39:09.226Z,14.90
2023-03-19T08:41:36.509Z,14.90
2023-03-19T08:44:03.993Z,15.00
2023-03-19T08:46:31.362Z,15.10
2023-03-19T08:48:58.301Z,15.20
2023-03-19T08:51:26.368Z,15.30
2023-03-19T08:53:54.403Z,15.30
2023-03-19T08:56:21.589Z,15.40
2023-03-19T08:58:48.834Z,15.50
2023-03-19T09:01:15.710Z,15.60
2023-03-19T09:03:45.326Z,15.70
2023-03-19T09:06:14.507Z,15.90
2023-03-19T09:08:42.277Z,16.00
2023-03-19T09:11:10.948Z,16.20
2023-03-19T09:13:38.046Z,16.30
2023-03-19T09:16:05.832Z,16.40
2023-03-19T09:18:34.004Z,16.50
2023-03-19T09:21:01.682Z,16.50
2023-03-19T09:23:29.872Z,16.60
2023-03-19T09:25:56.888Z,16.80
2023-03-19T09:28:24.313Z,16.80
2023-03-19T09:30:52.190Z,16.90
2023-03-19T09:33:20.722Z,17.00
2023-03-19T09:35:53.679Z,17.10
2023-03-19T09:38:22.206Z,17.20
2023-03-19T09:41:08.750Z,17.30
2023-03-19T09:44:05.616Z,17.40
2023-03-19T09:47:09.070Z,17.60
2023-03-19T09:49:50.264Z,17.80
2023-03-19T09:52:41.659Z,17.70
2023-03-19T09:55:23.445Z,18.00
2023-03-19T09:57:58.651Z,18.10
2023-03-19T10:00:36.966Z,18.30
2023-03-19T10:03:31.787Z,18.50
2023-03-19T10:06:29.553Z,18.70
2023-03-19T10:09:30.607Z,18.80
2023-03-19T10:12:43.244Z,18.90
2023-03-19T10:15:19.771Z,19.10
2023-03-19T10:17:59.980Z,19.20
2023-03-19T10:21:05.459Z,19.20
2023-03-19T10:23:57.264Z,19.40
2023-03-19T10:26:32.212Z,19.60
2023-03-19T10:29:18.205Z,19.80
2023-03-19T10:32:27.959Z,19.90
2023-03-19T10:34:57.660Z,20.00
2023-03-19T10:37:28.736Z,20.10
2023-03-19T10:40:00.977Z,20.10
2023-03-19T10:42:48.367Z,20.20
2023-03-19T10:45:31.927Z,20.30
2023-03-19T10:48:01.631Z,20.20
2023-03-19T10:50:57.087Z,20.30
2023-03-19T10:53:48.131Z,20.30
2023-03-19T10:56:27.172Z,20.20
2023-03-19T10:59:04.144Z,20.20
2023-03-19T11:01:40.932Z,20.20
2023-03-19T11:04:26.310Z,20.10
2023-03-19T11:07:06.374Z,20.10
2023-03-19T11:09:37.620Z,20.00
2023-03-19T11:12:34.566Z,20.10
2023-03-19T11:15:04.033Z,20.10
2023-03-19T11:17:50.717Z,20.10
2023-03-19T11:20:33.355Z,20.10
2023-03-19T11:23:07.681Z,20.10
2023-03-19T11:25:43.619Z,20.00
2023-03-19T11:28:20.580Z,20.00
2023-03-19T11:31:24.314Z,19.90
2023-03-19T11:34:24.279Z,19.90
2023-03-19T11:37:28.597Z,19.90
2023-03-19T11:40:40.388Z,19.90
2023-03-19T11:43:38.799Z,19.90
2023-03-19T11:46:32.555Z,19.90
2023-03-19T11:49:25.351Z,19.90
2023-03-19T11:52:00.808Z,19.80
2023-03-19T11:54:48.818Z,19.90
2023-03-19T11:57:57.606Z,19.90
2023-03-19T12:00:44.373Z,19.90
2023-03-19T12:03:26.163Z,19.90
2023-03-19T12:06:01.823Z,19.90
2023-03-19T12:08:42.535Z,19.90
2023-03-19T12:11:54.587Z,19.80
2023-03-19T12:14:35.162Z,19.90
2023-03-19T12:17:41.313Z,19.90
2023-03-19T12:20:29.946Z,19.90
2023-03-19T12:23:43.455Z,19.90
2023-03-19T12:26:35.102Z,19.90
2023-03-19T12:29:27.425Z,19.90
2023-03-19T12:32:00.438Z,19.90
2023-03-19T12:34:53.756Z,19.90
2023-03-19T12:37:38.455Z,19.80
2023-03-19T12:40:29.897Z,19.90
2023-03-19T12:43:02.233Z,19.80
2023-03-19T12:45:42.567Z,19.70
2023-03-19T12:48:21.862Z,19.70
2023-03-19T12:50:54.279Z,19.80
2023-03-19T12:54:20.841Z,19.80
2023-03-19T12:56:59.992Z,19.80
2023-03-19T12:59:58.387Z,19.80
2023-03-19T13:02:48.392Z,19.80
2023-03-19T13:05:15.219Z,19.80
2023-03-19T13:08:16.981Z,19.80
2023-03-19T13:10:43.916Z,19.90
2023-03-19T13:13:22.865Z,19.80
2023-03-19T13:15:58.432Z,19.80
2023-03-19T13:18:40.849Z,19.80
2023-03-19T13:21:28.914Z,19.80
2023-03-19T13:24:28.853Z,19.70
2023-03-19T13:27:01.140Z,19.70
2023-03-19T13:29:30.722Z,19.70
2023-03-19T13:32:06.536Z,19.70
2023-03-19T13:34:37.384Z,19.70
2023-03-19T13:37:16.788Z,19.70
2023-03-19T13:39:46.440Z,19.60
2023-03-19T13:42:38.235Z,19.60
2023-03-19T13:45:36.237Z,19.50
2023-03-19T13:48:26.653Z,19.50
2023-03-19T13:51:26.720Z,19.40
2023-03-19T13:54:12.712Z,19.40
2023-03-19T13:57:00.880Z,19.40
2023-03-19T13:59:35.037Z,19.30
2023-03-19T14:02:22.842Z,19.30
2023-03-19T14:05:17.546Z,19.30
2023-03-19T14:07:52.887Z,19.30
2023-03-19T14:10:25.617Z,19.30
2023-03-19T14:13:04.856Z,19.30
2023-03-19T14:15:32.100Z,19.20
2023-03-19T14:18:06.057Z,19.20
2023-03-19T14:21:13.023Z,19.20
2023-03-19T14:23:52.634Z,19.20
2023-03-19T14:26:28.893Z,19.10
2023-03-19T14:29:03.613Z,19.10
2023-03-19T14:31:33.749Z,19.00
2023-03-19T14:34:34.729Z,19.00
2023-03-19T14:37:25.062Z,19.00
2023-03-19T14:40:10.958Z,18.90
2023-03-19T14:42:46.761Z,18.90
2023-03-19T14:45:14.653Z,18.80
2023-03-19T14:48:06.835Z,18.80
2023-03-19T14:50:53.292Z,18.80
2023-03-19T14:53:43.809Z,18.70
2023-03-19T14:56:25.467Z,18.70
2023-03-19T14:59:00.204Z,18.60
2023-03-19T15:01:27.954Z,18.50
2023-03-19T15:04:07.814Z,18.40
2023-03-19T15:06:40.433Z,18.40
2023-03-19T15:09:21.370Z,18.30
2023-03-19T15:12:28.170Z,18.30
2023-03-19T15:15:18.114Z,18.20
2023-03-19T15:17:51.635Z,18.20
2023-03-19T15:20:26.389Z,18.10
2023-03-19T15:23:01.621Z,18.00
2023-03-19T15:25:31.534Z,18.00
2023-03-19T15:28:28.999Z,17.90
2023-03-19T15:31:26.292Z,17.80
2023-03-19T15:33:53.688Z,17.70
2023-03-19T15:36:33.723Z,17.60
2023-03-19T15:39:07.290Z,17.50
2023-03-19T15:41:41.293Z,17.40
2023-03-19T15:44:19.360Z,17.40
2023-03-19T15:46:47.666Z,17.30
2023-03-19T15:49:28.033Z,17.20
2023-03-19T15:52:02.608Z,17.20
2023-03-19T15:54:29.792Z,17.10
2023-03-19T15:56:57.522Z,17.00
2023-03-19T15:59:30.149Z,17.00
2023-03-19T16:02:01.293Z,16.90
2023-03-19T16:04:30.098Z,16.80
2023-03-19T16:06:59.198Z,16.80
2023-03-19T16:09:33.191Z,16.80
2023-03-19T16:12:01.409Z,16.70
2023-03-19T16:14:45.533Z,16.60
2023-03-19T16:17:18.182Z,16.60
2023-03-19T16:19:56.029Z,16.50
2023-03-19T16:22:31.229Z,16.50
2023-03-19T16:24:59.581Z,16.50
2023-03-19T16:27:36.683Z,16.40
2023-03-19T16:30:27.045Z,16.40
2023-03-19T16:33:06.591Z,16.40
2023-03-19T16:35:36.665Z,16.40
2023-03-19T16:38:28.241Z,16.30
2023-03-19T16:41:33.935Z,16.20
2023-03-19T16:44:18.436Z,16.10
2023-03-19T16:46:45.718Z,16.00
2023-03-19T16:49:12.635Z,16.00
2023-03-19T16:51:39.920Z,16.00
2023-03-19T16:54:07.146Z,15.90
2023-03-19T16:56:34.309Z,15.90
2023-03-19T16:59:03.150Z,15.80
2023-03-19T17:01:30.471Z,15.80
2023-03-19T17:03:57.772Z,15.90
2023-03-19T17:06:25.235Z,15.90
2023-03-19T17:08:52.330Z,16.00
2023-03-19T17:11:33.800Z,16.00
2023-03-19T17:14:01.795Z,16.10
2023-03-19T17:16:29.691Z,16.10
2023-03-19T17:18:57.529Z,16.10
2023-03-19T17:21:34.131Z,16.10
2023-03-19T17:24:26.775Z,16.10
2023-03-19T17:26:56.399Z,16.10
2023-03-19T17:29:24.976Z,16.00
2023-03-19T17:31:55.127Z,16.00
2023-03-19T17:34:30.457Z,15.90
2023-03-19T17:37:01.139Z,15.90
2023-03-19T17:39:32.843Z,15.80
2023-03-19T17:41:59.937Z,15.70
2023-03-19T17:44:27.966Z,15.60
2023-03-19T17:46:55.926Z,15.60
2023-03-19T17:49:30.007Z,15.60
2023-03-19T17:51:57.964Z,15.50
2023-03-19T17:54:27.000Z,15.50
2023-03-19T17:56:55.741Z,15.40
2023-03-19T17:59:23.536Z,15.40
2023-03-19T18:01:52.106Z,15.40
2023-03-19T18:04:22.299Z,15.30
2023-03-19T18:06:56.658Z,15.40
2023-03-19T18:09:32.783Z,15.30
2023-03-19T18:11:59.755Z,15.20
2023-03-19T18:14:26.671Z,15.10
2023-03-19T18:16:53.581Z,15.00
2023-03-19T18:19:36.805Z,15.00
2023-03-19T18:22:14.270Z,15.00
2023-03-19T18:24:41.341Z,14.90
2023-03-19T18:27:08.228Z,14.80
2023-03-19T18:29:35.563Z,14.90
2023-03-19T18:32:11.094Z,14.90
2023-03-19T18:34:38.124Z,15.00
2023-03-19T18:37:05.475Z,15.00
2023-03-19T18:39:36.357Z,15.00
2023-03-19T18:42:03.672Z,15.00
2023-03-19T18:44:30.949Z,14.90
2023-03-19T18:46:58.236Z,14.90
2023-03-19T18:49:27.170Z,15.00
2023-03-19T18:52:02.723Z,14.90
2023-03-19T18:54:31.181Z,14.80
2023-03-19T18:57:02.475Z,14.80
2023-03-19T18:59:33.174Z,14.80
2023-03-19T19:02:17.365Z,14.80
2023-03-19T19:04:44.389Z,14.80
2023-03-19T19:07:16.323Z,14.70
2023-03-19T19:09:43.677Z,14.70
2023-03-19T19:12:18.329Z,14.70
2023-03-19T19:14:46.427Z,14.60
2023-03-19T19:17:20.061Z,14.60
2023-03-19T19:19:47.169Z,14.60
2023-03-19T19:22:20.048Z,14.50
2023-03-19T19:24:47.419Z,14.50
2023-03-19T19:27:28.526Z,14.40
2023-03-19T19:29:55.695Z,14.40
2023-03-19T19:32:29.568Z,14.40
2023-03-19T19:34:56.984Z,14.40
2023-03-19T19:37:24.332Z,14.30
2023-03-19T19:39:51.583Z,14.30
2023-03-19T19:42:22.500Z,14.30
2023-03-19T19:44:56.245Z,14.20
2023-03-19T19:47:23.280Z,14.10
2023-03-19T19:49:50.361Z,14.20
2023-03-19T19:52:19.310Z,14.20
2023-03-19T19:54:46.950Z,14.10
2023-03-19T19:57:24.675Z,14.00
2023-03-19T19:59:54.105Z,14.00
2023-03-19T20:02:28.795Z,14.00
2023-03-19T20:04:57.219Z,14.00
2023-03-19T20:07:24.153Z,14.00
2023-03-19T20:09:51.521Z,13.80
2023-03-19T20:12:30.924Z,13.60
2023-03-19T20:14:58.473Z,13.30
2023-03-19T20:17:25.821Z,13.10
2023-03-19T20:19:52.837Z,12.90
2023-03-19T20:22:19.762Z,12.80
2023-03-19T20:24:49.560Z,12.60
2023-03-19T20:27:23.195Z,12.40
2023-03-19T20:29:50.794Z,12.30
2023-03-19T20:32:33.879Z,12.20
2023-03-19T20:35:01.640Z,12.10
2023-03-19T20:37:29.886Z,12.10
2023-03-19T20:39:56.883Z,12.00
2023-03-19T20:42:25.482Z,12.00
2023-03-19T20:44:58.626Z,12.00
2023-03-19T20:47:25.970Z,12.00
2023-03-19T20:49:53.412Z,11.90
2023-03-19T20:52:20.730Z,11.90
2023-03-19T20:54:50.312Z,12.00
2023-03-19T20:57:24.181Z,12.10
2023-03-19T20:59:51.022Z,12.20
2023-03-19T21:02:21.925Z,12.30
2023-03-19T21:04:49.109Z,12.30
2023-03-19T21:07:33.579Z,12.30
2023-03-19T21:10:06.382Z,12.30
2023-03-19T21:12:36.040Z,12.30
2023-03-19T21:15:03.377Z,12.30
2023-03-19T21:17:30.222Z,12.30
2023-03-19T21:19:57.181Z,12.30
2023-03-19T21:22:30.010Z,12.30
2023-03-19T21:25:06.856Z,12.30
2023-03-19T21:27:37.336Z,12.30
2023-03-19T21:30:06.608Z,12.30
2023-03-19T21:32:33.549Z,12.30
2023-03-19T21:35:00.497Z,12.30
2023-03-19T21:37:27.400Z,12.30
2023-03-19T21:39:54.315Z,12.30
2023-03-19T21:42:23.331Z,12.30
2023-03-19T21:44:59.189Z,12.30
2023-03-19T21:47:26.067Z,12.30
2023-03-19T21:49:52.946Z,12.20
2023-03-19T21:52:21.911Z,12.00
2023-03-19T21:54:49.096Z,11.90
2023-03-19T21:57:17.431Z,11.80
2023-03-19T21:59:45.382Z,11.80
2023-03-19T22:02:27.454Z,11.80
2023-03-19T22:04:54.446Z,11.80
2023-03-19T22:07:21.562Z,11.80
2023-03-19T22:09:48.411Z,11.80
2023-03-19T22:12:27.434Z,11.80
2023-03-19T22:14:54.787Z,11.80
2023-03-19T22:17:25.731Z,11.70
2023-03-19T22:19:52.608Z,11.70
2023-03-19T22:22:19.499Z,11.80
2023-03-19T22:24:46.387Z,11.80
2023-03-19T22:27:17.564Z,11.80
2023-03-19T22:29:47.330Z,11.80
2023-03-19T22:32:18.322Z,11.80
2023-03-19T22:34:45.549Z,11.70
2023-03-19T22:37:29.244Z,11.70
2023-03-19T22:39:56.534Z,11.70
2023-03-19T22:42:26.577Z,11.70
2023-03-19T22:44:54.651Z,11.70
2023-03-19T22:47:24.736Z,11.70
2023-03-19T22:49:52.139Z,11.70
2023-03-19T22:52:18.990Z,11.70
2023-03-19T22:54:46.010Z,11.70
2023-03-19T22:57:17.371Z,11.80
2023-03-19T22:59:44.550Z,11.80
2023-03-19T23:02:14.864Z,11.80
2023-03-19T23:04:41.879Z,11.80
2023-03-19T23:07:14.097Z,11.80
2023-03-19T23:09:41.899Z,11.90
2023-03-19T23:14:36.785Z,12.00
2023-03-19T23:17:15.590Z,11.90
2023-03-19T23:19:42.608Z,12.00
2023-03-19T23:22:16.362Z,11.90
2023-03-19T23:24:44.594Z,11.80
2023-03-19T23:27:26.091Z,11.80
2023-03-19T23:29:53.991Z,11.90
2023-03-19T23:32:21.881Z,11.90
2023-03-19T23:34:59.549Z,11.90
2023-03-19T23:37:28.639Z,11.80
2023-03-19T23:39:56.293Z,11.70
2023-03-19T23:42:29.549Z,11.90
2023-03-19T23:45:01.257Z,11.90
2023-03-19T23:47:30.561Z,11.80
2023-03-19T23:49:57.780Z,11.70
2023-03-19T23:52:24.598Z,11.70
2023-03-19T23:54:52.395Z,11.70
2023-03-19T23:57:21.740Z,11.50
2023-03-19T23:59:57.410Z,11.50
